Terminal Aerodrome Forecast
Issued by NWS Buffalo, NY

Home | Current Version | Previous Version | Text Only | Print | Product List | Glossary On
Versions: 1 2 3 4 5 6 7 8 9 10 11 12 13 14 15 16 17 18 19 20 21 22 23 24 25 26 27
090
FTUS41 KBUF 100309 AAA
TAFROC
TAF AMD
KROC 100309Z 1003/1024 26014KT P6SM OVC045
     FM101200 26014KT P6SM VCSH OVC025
     FM101400 27015G21KT 2SM -SN OVC020=

USA.gov is the U.S. government's official web portal to all federal, state and local government web resources and services.